map of ILM home
ILM - Airport
Location
City:  Wilmington, North Carolina, United States
Name:Wilmington International Airport
ICAO:KILM
IATA:ILM
FAA LID:ILM

Details
Type:Airport (Part 139 Class I)
Use:Public/Civil, International (customs landing rights)
Latitude:3416'16"N (34.271139)
Longitude:7754'10"W (-77.902888)
Datum:WGS 1984
Elevation:31 ft (9 m)
Variation:9.41W (WMM2015v2 magnetic declination)
-0.02 annual change
Runways:2
Longest:8016 × 150 ft (2443 × 45.5 m), paved

Time
Time Zone:UTC-5 (DST-4)
Local Time:

Weather
METAR:KILM 041353Z 33010KT 10SM CLR 11/06 A3001 RMK AO2 SLP162 T01110061
TAF:KILM 041124Z 0412/0512 33012KT P6SM FEW250
FM050000 35003KT P6SM SKC

Related Locations
Nearby:
Farthest:MQZ: 11699 mi / 18827 km
Margaret River [Margaret River Airport], WA, AU

Find:

   beyond  
but within

Other Information
Maps:
Delays:
NOTAMs:
Links:
Sources:

  
  • flag of United States
  • flag of North Carolina
  

Airport Diagram

Airport diagram for ILM

Airport diagram PDF from FAA

Sectional Chart

Flight Planning
at skyvector.com

Satellite Image

Google Maps Satellite view

 

Copyright © 2004-2019 Karl L. Swartz. All rights reserved.
The Great Circle Mapper name and logo are trademarks of the Great Circle Mapper.
All other trademarks mentioned herein belong to their respective owners.
Please see credits for attibutions and further copyright information.

  Follow gcmap on Facebook Follow gcmap on Twitter GCmap on LinkedIn

hCard Microformat

Geo Microformat